Time;durP1;ratioP1;P1;durP2;ratioP2;P2;SDS_P1;SDS_P2;PMS_P1;PMS_P2;Temp;Humidity;BMP_temperature;BMP_pressure;BME280_temperature;BME280_humidity;BME280_pressure;Samples;Min_cycle;Max_cycle;Signal;HPM_P1;HPM_P2
2023/09/14 00:01:31;;;;;;;6.07;4.45;;;20.50;99.90;;;;;;5041433;28;20616;-57
2023/09/14 00:03:57;;;;;;;4.38;3.92;;;20.50;99.90;;;;;;5040915;28;20203;-58
2023/09/14 00:06:24;;;;;;;9.20;4.43;;;20.50;99.90;;;;;;5044285;28;20229;-57
2023/09/14 00:08:53;;;;;;;4.72;3.80;;;20.50;99.90;;;;;;5044211;28;20255;-58
2023/09/14 00:11:20;;;;;;;5.60;4.60;;;20.40;99.90;;;;;;5041665;28;20222;-58
2023/09/14 00:13:48;;;;;;;7.18;4.40;;;20.40;99.90;;;;;;5040561;28;20206;-57
2023/09/14 00:16:14;;;;;;;4.43;4.00;;;20.30;99.90;;;;;;5042424;28;20249;-57
2023/09/14 00:18:41;;;;;;;5.30;4.57;;;20.30;99.90;;;;;;5044073;28;20721;-57
2023/09/14 00:21:08;;;;;;;4.90;4.40;;;20.10;99.90;;;;;;5043010;28;20208;-59
2023/09/14 00:23:34;;;;;;;4.95;3.70;;;20.10;99.90;;;;;;5040419;28;20230;-57
2023/09/14 00:26:03;;;;;;;6.30;5.00;;;20.10;99.90;;;;;;5040667;28;20248;-57
2023/09/14 00:28:30;;;;;;;5.10;4.60;;;20.10;99.90;;;;;;5040509;28;20198;-57
2023/09/14 00:30:57;;;;;;;5.15;4.45;;;20.20;99.90;;;;;;5040363;28;20226;-57
2023/09/14 00:33:24;;;;;;;5.93;4.50;;;20.20;99.90;;;;;;5043161;28;20205;-57
2023/09/14 00:35:50;;;;;;;7.13;4.15;;;20.20;99.90;;;;;;5043531;28;20226;-57
2023/09/14 00:38:18;;;;;;;4.75;4.25;;;20.20;99.90;;;;;;5041462;28;20260;-56
2023/09/14 00:40:44;;;;;;;4.95;4.13;;;20.30;99.90;;;;;;5040387;28;20202;-57
2023/09/14 00:43:13;;;;;;;5.72;4.43;;;20.30;99.90;;;;;;5041111;28;20214;-57
2023/09/14 00:45:41;;;;;;;8.75;4.22;;;20.30;99.90;;;;;;5043317;28;20231;-56
2023/09/14 00:48:08;;;;;;;5.53;4.55;;;20.30;99.90;;;;;;5042576;28;20216;-56
2023/09/14 00:50:35;;;;;;;6.25;4.00;;;20.30;99.90;;;;;;5040125;28;20305;-57
2023/09/14 00:53:04;;;;;;;6.68;4.32;;;20.20;99.90;;;;;;5039901;28;20206;-57
2023/09/14 00:55:32;;;;;;;6.90;4.40;;;20.20;99.90;;;;;;5039995;28;20229;-58
2023/09/14 00:57:59;;;;;;;4.90;4.20;;;20.10;99.90;;;;;;5039951;28;20202;-56
2023/09/14 01:00:28;;;;;;;4.55;4.07;;;20.10;99.90;;;;;;5043032;28;20202;-58
2023/09/14 01:02:56;;;;;;;5.93;4.70;;;20.10;99.90;;;;;;5042980;28;20201;-58
2023/09/14 01:05:25;;;;;;;5.15;4.65;;;20.20;99.90;;;;;;5040242;28;20230;-57
2023/09/14 01:07:52;;;;;;;4.72;4.20;;;20.20;99.90;;;;;;5039928;28;20209;-57
2023/09/14 01:10:18;;;;;;;7.40;4.82;;;20.20;99.90;;;;;;5041856;28;20206;-56
2023/09/14 01:12:47;;;;;;;6.82;4.20;;;20.20;99.90;;;;;;5042733;28;20225;-56
2023/09/14 01:15:19;;;;;;;4.95;4.55;;;20.20;99.90;;;;;;5041356;28;20237;-56
2023/09/14 01:18:00;;;;;;;4.93;4.47;;;20.20;99.90;;;;;;5039442;28;20588;-56
2023/09/14 01:20:48;;;;;;;5.15;4.25;;;20.20;99.90;;;;;;5042709;28;20702;-56
2023/09/14 01:23:34;;;;;;;4.63;4.18;;;20.10;99.90;;;;;;5041101;28;20567;-56
2023/09/14 01:26:02;;;;;;;4.30;3.90;;;20.10;99.90;;;;;;5039289;28;20218;-57
2023/09/14 01:28:28;;;;;;;3.97;3.63;;;20.00;99.90;;;;;;5039471;28;20561;-57
2023/09/14 01:30:55;;;;;;;8.45;4.07;;;19.90;99.90;;;;;;5039292;28;20198;-58
2023/09/14 01:33:25;;;;;;;4.30;3.58;;;19.90;99.90;;;;;;5041747;28;20268;-58
2023/09/14 01:36:00;;;;;;;4.40;3.50;;;19.90;99.90;;;;;;5043047;28;20226;-56
2023/09/14 01:38:29;;;;;;;6.07;3.90;;;19.90;99.90;;;;;;5039742;28;20208;-56
2023/09/14 01:40:56;;;;;;;3.60;3.30;;;19.90;99.90;;;;;;5039241;28;20579;-56
2023/09/14 01:43:25;;;;;;;5.38;4.32;;;19.90;99.90;;;;;;5041690;28;20293;-56
2023/09/14 01:45:52;;;;;;;6.68;4.40;;;19.80;99.90;;;;;;5042737;28;20600;-58
2023/09/14 01:48:20;;;;;;;5.90;4.80;;;19.60;99.90;;;;;;5040287;28;20208;-55
2023/09/14 01:50:47;;;;;;;5.63;4.45;;;19.50;99.90;;;;;;5039184;28;20232;-56
2023/09/14 01:53:14;;;;;;;5.75;5.07;;;19.30;99.90;;;;;;5040467;28;20579;-57
2023/09/14 01:55:41;;;;;;;6.60;4.82;;;19.40;99.90;;;;;;5042710;28;20248;-56
2023/09/14 01:58:09;;;;;;;6.88;5.18;;;19.30;99.90;;;;;;5042234;28;20675;-56
2023/09/14 02:00:37;;;;;;;6.15;5.50;;;19.30;99.90;;;;;;5039307;28;20202;-55
2023/09/14 02:03:04;;;;;;;6.68;5.50;;;19.40;99.90;;;;;;5039110;28;20592;-56
2023/09/14 02:05:31;;;;;;;6.55;4.90;;;19.40;99.90;;;;;;5039185;28;20735;-56
2023/09/14 02:07:58;;;;;;;8.48;5.40;;;19.50;99.90;;;;;;5039257;28;20584;-56
2023/09/14 02:10:24;;;;;;;6.88;5.28;;;19.40;99.90;;;;;;5041992;28;20222;-57
2023/09/14 02:12:51;;;;;;;9.70;5.13;;;19.40;99.90;;;;;;5042512;28;20217;-57
2023/09/14 02:15:18;;;;;;;7.10;5.03;;;19.40;99.90;;;;;;5041734;28;20303;-55
2023/09/14 02:17:46;;;;;;;8.07;5.35;;;19.40;99.90;;;;;;5043354;28;20588;-57
2023/09/14 02:20:13;;;;;;;5.82;5.22;;;19.40;99.90;;;;;;5044353;28;20234;-56
2023/09/14 02:22:40;;;;;;;6.32;5.28;;;19.30;99.90;;;;;;5046788;28;20364;-56
2023/09/14 02:25:07;;;;;;;5.90;5.25;;;19.40;99.90;;;;;;5046138;28;20567;-56
2023/09/14 02:27:35;;;;;;;6.57;5.72;;;19.40;99.90;;;;;;5043019;28;20587;-56
2023/09/14 02:30:03;;;;;;;6.65;5.50;;;19.40;99.90;;;;;;5042787;28;20260;-57
2023/09/14 02:32:29;;;;;;;7.22;5.55;;;19.40;99.90;;;;;;5045903;28;20226;-55
2023/09/14 02:34:58;;;;;;;6.72;4.97;;;19.40;99.90;;;;;;5045815;28;20222;-56
2023/09/14 02:37:24;;;;;;;6.47;5.25;;;19.40;99.90;;;;;;5043396;28;20205;-59
2023/09/14 02:39:51;;;;;;;6.22;5.18;;;19.40;99.90;;;;;;5042481;28;20561;-57
2023/09/14 02:42:18;;;;;;;6.07;5.15;;;19.40;99.90;;;;;;5044091;28;20545;-57
2023/09/14 02:44:44;;;;;;;6.32;5.28;;;19.30;99.90;;;;;;5045575;28;20236;-56
2023/09/14 02:47:11;;;;;;;5.85;5.05;;;19.40;99.90;;;;;;5044871;28;20237;-57
2023/09/14 02:49:38;;;;;;;5.93;5.32;;;19.20;99.90;;;;;;5042687;28;20630;-57
2023/09/14 02:52:06;;;;;;;5.30;4.80;;;19.20;99.90;;;;;;5042507;28;20230;-57
2023/09/14 02:54:33;;;;;;;5.80;5.20;;;19.20;99.90;;;;;;5042330;28;20202;-57
2023/09/14 02:57:00;;;;;;;6.53;5.25;;;19.10;99.90;;;;;;5042099;28;20245;-56
2023/09/14 02:59:27;;;;;;;5.35;4.75;;;19.20;99.90;;;;;;5045138;28;20213;-57
2023/09/14 03:01:54;;;;;;;5.32;4.55;;;19.20;99.90;;;;;;5045568;28;20679;-57
2023/09/14 03:04:20;;;;;;;6.40;5.22;;;19.10;99.90;;;;;;5043530;28;20264;-56
2023/09/14 03:06:47;;;;;;;6.22;5.00;;;19.10;99.90;;;;;;5042452;28;20671;-57
2023/09/14 03:09:15;;;;;;;5.30;4.80;;;19.10;99.90;;;;;;5043046;28;20341;-57
2023/09/14 03:11:42;;;;;;;5.13;4.63;;;19.10;99.90;;;;;;5045648;28;20221;-57
2023/09/14 03:14:09;;;;;;;6.30;4.68;;;19.20;99.90;;;;;;5044811;28;20582;-57
2023/09/14 03:16:36;;;;;;;6.75;4.65;;;19.20;99.90;;;;;;5041892;28;20218;-57
2023/09/14 03:19:03;;;;;;;7.47;5.32;;;19.10;99.90;;;;;;5042334;28;20225;-57
2023/09/14 03:21:30;;;;;;;4.82;4.00;;;19.10;99.90;;;;;;5045116;28;20228;-57
2023/09/14 03:23:57;;;;;;;4.72;4.13;;;19.10;99.90;;;;;;5045221;28;20213;-56
2023/09/14 03:26:27;;;;;;;5.28;4.43;;;19.00;99.90;;;;;;5041894;28;20247;-57
2023/09/14 03:28:54;;;;;;;5.32;4.63;;;19.00;99.90;;;;;;5041773;28;20202;-57
2023/09/14 03:31:21;;;;;;;5.45;4.65;;;19.00;99.90;;;;;;5043540;28;20221;-57
2023/09/14 03:33:48;;;;;;;4.93;4.28;;;19.00;99.90;;;;;;5044873;28;20225;-59
2023/09/14 03:36:16;;;;;;;7.57;4.38;;;19.10;99.90;;;;;;5043790;28;20252;-57
2023/09/14 03:38:43;;;;;;;6.85;4.22;;;19.20;99.90;;;;;;5041562;28;20199;-56
2023/09/14 03:41:12;;;;;;;6.82;4.40;;;19.20;99.90;;;;;;5041627;28;20656;-58
2023/09/14 03:43:40;;;;;;;5.65;4.40;;;19.30;99.90;;;;;;5044600;28;20283;-56
2023/09/14 03:46:07;;;;;;;5.88;4.35;;;19.40;99.90;;;;;;5044644;28;20261;-57
2023/09/14 03:48:34;;;;;;;8.48;5.50;;;19.30;99.90;;;;;;5041309;28;20234;-59
2023/09/14 03:51:01;;;;;;;6.63;4.50;;;19.30;99.90;;;;;;5041147;28;20199;-57
2023/09/14 03:53:28;;;;;;;4.10;3.70;;;19.30;99.90;;;;;;5043672;28;22244;-57
2023/09/14 03:55:55;;;;;;;4.88;4.30;;;19.30;99.90;;;;;;5044520;28;20270;-57
2023/09/14 03:58:22;;;;;;;5.97;4.00;;;19.30;99.90;;;;;;5042620;28;20206;-56
2023/09/14 04:00:50;;;;;;;5.57;3.92;;;19.40;99.90;;;;;;5041219;28;20198;-57
2023/09/14 04:03:17;;;;;;;5.38;3.75;;;19.30;99.90;;;;;;5041981;28;20213;-57
2023/09/14 04:05:44;;;;;;;7.60;5.18;;;19.20;99.90;;;;;;5044523;28;20259;-59
2023/09/14 04:08:11;;;;;;;4.40;4.00;;;19.20;99.90;;;;;;5043736;28;20206;-57
2023/09/14 04:10:38;;;;;;;4.43;3.75;;;19.20;99.90;;;;;;5040689;28;20284;-56
2023/09/14 04:13:29;;;;;;;4.95;4.00;;;19.20;99.90;;;;;;5040455;28;20307;-56
2023/09/14 04:15:58;;;;;;;4.93;4.43;;;19.30;99.90;;;;;;5040856;28;20604;-56
2023/09/14 04:18:25;;;;;;;5.30;3.90;;;19.40;99.90;;;;;;5042762;28;20213;-56
2023/09/14 04:20:53;;;;;;;4.50;3.78;;;19.40;99.90;;;;;;5043901;28;20672;-56
2023/09/14 04:23:20;;;;;;;4.28;3.80;;;19.40;99.90;;;;;;5042143;28;20208;-56
2023/09/14 04:25:47;;;;;;;5.38;4.32;;;19.40;99.90;;;;;;5040650;28;20578;-58
2023/09/14 04:28:15;;;;;;;5.50;3.88;;;19.30;99.90;;;;;;5041307;28;20237;-56
2023/09/14 04:30:43;;;;;;;3.95;3.53;;;19.30;99.90;;;;;;5043639;28;20213;-56
2023/09/14 04:33:11;;;;;;;5.43;4.10;;;19.40;99.90;;;;;;5043184;28;20221;-57
2023/09/14 04:35:38;;;;;;;5.75;3.65;;;19.40;99.90;;;;;;5039947;28;20218;-56
2023/09/14 04:38:05;;;;;;;3.60;3.30;;;19.40;99.90;;;;;;5039679;28;20680;-57
2023/09/14 04:40:32;;;;;;;5.07;3.67;;;19.30;99.90;;;;;;5043082;28;20614;-57
2023/09/14 04:43:00;;;;;;;6.50;4.07;;;19.40;99.90;;;;;;5043206;28;20197;-58
2023/09/14 04:45:26;;;;;;;5.65;4.07;;;19.40;99.90;;;;;;5041203;28;20268;-57
2023/09/14 04:47:53;;;;;;;6.00;4.15;;;19.40;99.90;;;;;;5040215;28;20285;-57
2023/09/14 04:50:21;;;;;;;7.40;4.28;;;19.40;99.90;;;;;;5041280;28;20214;-56
2023/09/14 04:52:48;;;;;;;5.65;4.57;;;19.40;99.90;;;;;;5043176;28;20221;-57
2023/09/14 04:55:14;;;;;;;5.60;4.78;;;19.40;99.90;;;;;;5042466;28;20240;-56
2023/09/14 04:57:41;;;;;;;5.97;4.32;;;19.40;99.90;;;;;;5040015;28;20206;-59
2023/09/14 05:00:09;;;;;;;5.07;3.60;;;19.40;99.90;;;;;;5040217;28;20257;-57
2023/09/14 05:02:36;;;;;;;7.13;3.78;;;19.40;99.90;;;;;;5039789;28;20584;-56
2023/09/14 05:05:02;;;;;;;6.38;4.28;;;19.40;99.90;;;;;;5039632;28;20226;-56
2023/09/14 05:07:30;;;;;;;5.03;4.50;;;19.40;99.90;;;;;;5042500;28;20213;-56
2023/09/14 05:09:57;;;;;;;6.97;4.90;;;19.40;99.90;;;;;;5043203;28;20213;-56
2023/09/14 05:12:25;;;;;;;5.68;4.13;;;19.30;99.90;;;;;;5040554;28;20726;-58
2023/09/14 05:14:51;;;;;;;4.43;3.30;;;19.40;99.90;;;;;;5039423;28;20202;-59
2023/09/14 05:17:18;;;;;;;5.28;4.13;;;19.30;99.90;;;;;;5040500;28;20573;-56
2023/09/14 05:19:45;;;;;;;5.47;3.97;;;19.50;99.90;;;;;;5043064;28;20201;-56
2023/09/14 05:22:12;;;;;;;7.72;3.97;;;19.50;99.90;;;;;;5042522;28;20244;-59
2023/09/14 05:24:40;;;;;;;4.75;4.32;;;19.50;99.90;;;;;;5039369;28;20306;-57
2023/09/14 05:27:07;;;;;;;4.13;3.50;;;19.50;99.90;;;;;;5039460;28;20214;-57
2023/09/14 05:29:34;;;;;;;5.30;3.78;;;19.50;99.90;;;;;;5042972;28;20586;-58
2023/09/14 05:32:01;;;;;;;4.88;3.60;;;19.50;99.90;;;;;;5042727;28;20201;-56
2023/09/14 05:34:27;;;;;;;5.28;4.25;;;19.50;99.90;;;;;;5039881;28;20701;-58
2023/09/14 05:36:54;;;;;;;4.10;3.70;;;19.50;99.90;;;;;;5039285;28;20230;-57
2023/09/14 05:39:21;;;;;;;7.05;4.75;;;19.50;99.90;;;;;;5040580;28;20206;-57
2023/09/14 05:41:50;;;;;;;4.75;3.30;;;19.60;99.90;;;;;;5042817;28;20288;-57
2023/09/14 05:44:17;;;;;;;4.57;3.45;;;19.60;99.90;;;;;;5041228;28;20623;-57
2023/09/14 05:46:44;;;;;;;6.78;3.35;;;19.60;99.90;;;;;;5039065;28;20230;-57
2023/09/14 05:49:10;;;;;;;5.05;3.38;;;19.70;99.90;;;;;;5038825;28;20672;-58
2023/09/14 05:51:37;;;;;;;5.63;3.83;;;19.70;99.90;;;;;;5038712;28;20199;-57
2023/09/14 05:54:04;;;;;;;4.35;3.45;;;19.70;99.90;;;;;;5038739;28;20716;-57
2023/09/14 05:56:31;;;;;;;4.38;3.92;;;19.80;99.90;;;;;;5041979;28;20230;-56
2023/09/14 05:58:59;;;;;;;5.60;3.33;;;19.90;99.90;;;;;;5042757;28;20197;-57
2023/09/14 06:01:26;;;;;;;3.95;3.38;;;19.90;99.90;;;;;;5040548;28;20208;-57
2023/09/14 06:03:53;;;;;;;7.78;4.28;;;19.90;99.90;;;;;;5038938;28;20202;-59
2023/09/14 06:06:19;;;;;;;6.38;3.75;;;19.90;99.90;;;;;;5040004;28;20233;-56
2023/09/14 06:08:46;;;;;;;4.50;3.55;;;19.90;99.90;;;;;;5042367;28;20216;-57
2023/09/14 06:11:13;;;;;;;4.13;2.55;;;19.90;99.90;;;;;;5042080;28;20300;-58
2023/09/14 06:13:39;;;;;;;4.70;3.75;;;19.90;99.90;;;;;;5038433;28;20222;-57
2023/09/14 06:16:07;;;;;;;4.35;3.55;;;19.90;99.90;;;;;;5038969;28;20232;-57
2023/09/14 06:18:34;;;;;;;6.53;3.80;;;19.90;99.90;;;;;;5041890;28;20198;-57
2023/09/14 06:21:01;;;;;;;4.70;3.53;;;19.90;99.90;;;;;;5042364;28;20205;-58
2023/09/14 06:23:27;;;;;;;3.50;3.20;;;19.90;99.90;;;;;;5039799;28;20710;-57
2023/09/14 06:25:54;;;;;;;6.20;3.40;;;19.90;99.90;;;;;;5038756;28;20624;-57
2023/09/14 06:28:21;;;;;;;5.20;3.67;;;19.70;99.90;;;;;;5040105;28;20664;-56
2023/09/14 06:30:47;;;;;;;7.10;4.20;;;19.80;99.90;;;;;;5042325;28;20205;-57
2023/09/14 06:33:15;;;;;;;9.85;4.15;;;19.90;99.90;;;;;;5042033;28;20217;-57
2023/09/14 06:35:42;;;;;;;3.50;3.20;;;20.00;99.90;;;;;;5038675;28;20222;-57
2023/09/14 06:38:09;;;;;;;5.60;3.55;;;20.00;99.90;;;;;;5038555;28;20202;-56
2023/09/14 06:40:35;;;;;;;4.47;3.05;;;19.90;99.90;;;;;;5041627;28;20212;-57
2023/09/14 06:43:02;;;;;;;3.80;2.97;;;20.00;99.90;;;;;;5042109;28;20202;-56
2023/09/14 06:45:29;;;;;;;4.65;2.80;;;20.00;99.90;;;;;;5039601;28;20465;-56
2023/09/14 06:47:56;;;;;;;6.47;3.40;;;20.20;99.90;;;;;;5038522;28;20684;-56
2023/09/14 06:50:24;;;;;;;5.05;2.78;;;20.40;99.90;;;;;;5039917;28;20213;-57
2023/09/14 06:52:50;;;;;;;3.42;2.97;;;20.50;99.90;;;;;;5041777;28;20221;-57
2023/09/14 06:55:17;;;;;;;3.42;2.65;;;20.50;99.90;;;;;;5041307;28;20298;-57
2023/09/14 06:57:44;;;;;;;5.35;2.97;;;20.70;99.90;;;;;;5038561;28;20206;-57
2023/09/14 07:00:14;;;;;;;3.80;3.05;;;21.00;99.90;;;;;;5038423;28;20211;-57
2023/09/14 07:02:42;;;;;;;5.60;3.63;;;20.90;99.90;;;;;;5041009;28;20262;-57
2023/09/14 07:05:10;;;;;;;4.22;2.90;;;20.80;99.90;;;;;;5041779;28;20379;-57
2023/09/14 07:07:38;;;;;;;3.35;3.05;;;20.70;99.90;;;;;;5045006;28;20691;-57
2023/09/14 07:10:05;;;;;;;5.05;3.33;;;20.80;99.90;;;;;;5045791;28;20214;-56
2023/09/14 07:12:32;;;;;;;4.63;3.55;;;20.90;99.90;;;;;;5042814;28;20217;-58
2023/09/14 07:14:59;;;;;;;5.72;4.18;;;21.10;99.90;;;;;;5041683;28;20229;-57
2023/09/14 07:17:25;;;;;;;6.07;3.10;;;21.00;99.90;;;;;;5043324;28;20700;-56
2023/09/14 07:19:52;;;;;;;4.97;2.95;;;21.10;99.90;;;;;;5045450;28;20256;-57
2023/09/14 07:22:20;;;;;;;5.30;3.55;;;21.30;99.90;;;;;;5044195;28;20209;-56
2023/09/14 07:24:48;;;;;;;3.42;2.80;;;21.60;99.90;;;;;;5041623;28;20202;-56
2023/09/14 07:27:16;;;;;;;4.63;3.00;;;21.70;99.90;;;;;;5041939;28;20213;-56
2023/09/14 07:29:44;;;;;;;5.68;3.22;;;22.00;99.90;;;;;;5045109;28;20688;-56
2023/09/14 07:32:10;;;;;;;4.20;3.30;;;22.20;99.90;;;;;;5044810;28;20620;-57
2023/09/14 07:34:37;;;;;;;7.38;4.13;;;22.40;99.90;;;;;;5041191;28;20218;-57
2023/09/14 07:37:04;;;;;;;3.80;3.10;;;22.40;99.90;;;;;;5041709;28;20218;-56
2023/09/14 07:39:31;;;;;;;5.97;2.90;;;22.60;99.90;;;;;;5043826;28;20202;-56
2023/09/14 07:41:59;;;;;;;4.40;2.97;;;22.70;99.90;;;;;;5044908;28;20230;-56
2023/09/14 07:44:25;;;;;;;7.55;3.70;;;22.70;99.90;;;;;;5043131;28;20197;-56
2023/09/14 07:46:52;;;;;;;4.90;3.90;;;22.90;99.90;;;;;;5067614;22;20295;-61
2023/09/14 07:49:19;;;;;;;9.00;3.95;;;23.00;99.90;;;;;;5042110;28;20206;-66
2023/09/14 07:51:45;;;;;;;5.40;3.58;;;23.20;99.90;;;;;;5042475;28;20198;-62
2023/09/14 07:54:13;;;;;;;6.28;4.15;;;23.30;99.90;;;;;;5041819;28;20305;-62
2023/09/14 07:56:39;;;;;;;10.35;4.22;;;23.30;99.90;;;;;;5030661;28;20590;-62
2023/09/14 07:59:07;;;;;;;5.50;3.78;;;22.80;99.90;;;;;;5025267;28;20229;-62
2023/09/14 08:01:34;;;;;;;8.98;4.60;;;21.70;99.90;;;;;;5022414;28;20210;-62
2023/09/14 08:04:02;;;;;;;6.32;4.30;;;21.10;99.90;;;;;;5021276;28;20211;-62
2023/09/14 08:06:29;;;;;;;5.70;4.00;;;21.10;99.90;;;;;;5023349;28;20250;-62
2023/09/14 08:08:56;;;;;;;5.22;3.67;;;20.90;99.90;;;;;;5025188;28;20202;-62
2023/09/14 08:11:22;;;;;;;4.65;3.80;;;21.10;99.90;;;;;;5024213;28;20210;-62
2023/09/14 08:13:49;;;;;;;5.78;3.90;;;21.60;99.90;;;;;;5020113;28;20226;-62
2023/09/14 08:16:17;;;;;;;5.03;3.78;;;21.90;99.90;;;;;;5020931;28;20253;-62
2023/09/14 08:18:44;;;;;;;4.65;3.78;;;21.90;99.90;;;;;;5025122;28;20202;-62
2023/09/14 08:21:11;;;;;;;4.47;3.22;;;21.50;99.90;;;;;;5024661;28;20676;-63
2023/09/14 08:23:38;;;;;;;4.65;3.72;;;21.40;99.90;;;;;;5021570;28;20229;-63
2023/09/14 08:26:06;;;;;;;9.05;3.97;;;21.20;99.90;;;;;;5021146;28;20233;-66
2023/09/14 08:28:33;;;;;;;5.70;3.63;;;21.40;99.90;;;;;;5023578;28;20211;-64
2023/09/14 08:31:00;;;;;;;9.60;3.88;;;21.80;99.90;;;;;;5024622;28;20214;-62
2023/09/14 08:33:29;;;;;;;3.45;3.15;;;22.20;99.90;;;;;;5023220;28;20226;-65
2023/09/14 08:35:56;;;;;;;4.50;3.25;;;22.60;99.90;;;;;;5020881;28;20318;-63
2023/09/14 08:38:25;;;;;;;4.10;3.70;;;23.00;99.90;;;;;;5021456;28;20226;-63
2023/09/14 08:40:54;;;;;;;6.18;4.07;;;23.30;99.90;;;;;;5023934;28;20198;-62
2023/09/14 08:43:21;;;;;;;5.18;4.25;;;23.20;99.90;;;;;;5023812;28;20198;-62
2023/09/14 08:45:50;;;;;;;50.70;45.53;;;23.30;99.90;;;;;;5020513;28;20234;-63
2023/09/14 08:48:20;;;;;;;5.90;4.18;;;23.40;99.90;;;;;;5021062;28;20595;-63
2023/09/14 08:50:49;;;;;;;5.65;4.15;;;23.70;99.90;;;;;;5024034;28;20198;-64
2023/09/14 08:53:17;;;;;;;5.13;3.85;;;23.80;99.90;;;;;;5015235;28;20223;-64
2023/09/14 08:55:44;;;;;;;4.97;3.83;;;23.90;99.90;;;;;;5027957;28;20269;-65
2023/09/14 08:58:12;;;;;;;5.43;3.80;;;23.60;99.90;;;;;;5019921;28;20677;-65
2023/09/14 09:00:41;;;;;;;5.38;4.60;;;23.50;99.90;;;;;;5023094;28;20562;-66
2023/09/14 09:03:08;;;;;;;4.70;4.07;;;23.70;99.90;;;;;;5022842;28;20672;-65
2023/09/14 09:05:35;;;;;;;6.53;4.15;;;23.70;99.90;;;;;;5021065;28;20225;-65
2023/09/14 09:08:03;;;;;;;6.05;4.25;;;23.50;99.90;;;;;;5019933;28;20207;-62
2023/09/14 09:10:32;;;;;;;4.80;3.28;;;23.70;99.90;;;;;;5021416;28;20595;-62
2023/09/14 09:12:59;;;;;;;5.63;4.07;;;24.00;99.90;;;;;;5023385;28;20206;-62
2023/09/14 09:15:27;;;;;;;4.57;3.75;;;24.20;99.90;;;;;;5022128;28;20222;-61
2023/09/14 09:17:54;;;;;;;5.22;4.72;;;24.20;99.90;;;;;;5019941;28;20214;-63
2023/09/14 09:20:23;;;;;;;4.65;4.22;;;24.20;99.90;;;;;;5019713;28;20210;-61
2023/09/14 09:22:51;;;;;;;4.95;4.20;;;24.40;99.90;;;;;;5019560;28;20210;-61
2023/09/14 09:25:21;;;;;;;5.43;4.53;;;24.60;99.90;;;;;;5018945;28;20227;-61
2023/09/14 09:27:48;;;;;;;9.32;5.05;;;24.80;99.90;;;;;;5022898;28;20213;-62
2023/09/14 09:30:16;;;;;;;6.07;5.47;;;24.90;99.90;;;;;;5023379;28;20297;-61
2023/09/14 09:32:43;;;;;;;6.97;4.35;;;24.90;99.90;;;;;;5019503;28;20202;-61
2023/09/14 09:35:19;;;;;;;5.60;4.63;;;24.70;99.90;;;;;;5019374;28;20226;-62
2023/09/14 09:37:46;;;;;;;4.57;4.18;;;24.50;99.90;;;;;;5019431;28;20211;-63
2023/09/14 09:40:14;;;;;;;5.22;4.00;;;23.90;99.90;;;;;;5019480;28;20657;-61
2023/09/14 09:42:43;;;;;;;4.88;3.85;;;23.80;99.90;;;;;;5022294;28;20213;-61
2023/09/14 09:45:11;;;;;;;6.65;5.53;;;23.90;99.90;;;;;;5022291;28;20315;-62
2023/09/14 09:47:38;;;;;;;8.45;5.63;;;24.10;99.90;;;;;;5020113;28;20213;-61
2023/09/14 09:50:07;;;;;;;7.53;4.40;;;24.00;99.90;;;;;;5019020;28;20217;-61
2023/09/14 09:52:35;;;;;;;5.22;4.10;;;24.20;99.90;;;;;;5021530;28;20203;-61
2023/09/14 09:55:02;;;;;;;6.78;3.75;;;24.50;99.90;;;;;;5022161;28;20214;-61
2023/09/14 09:57:30;;;;;;;4.45;3.03;;;24.70;99.90;;;;;;5020979;28;20210;-62
2023/09/14 09:59:58;;;;;;;4.75;3.63;;;25.10;99.90;;;;;;5019603;28;20293;-61
2023/09/14 10:02:31;;;;;;;3.72;3.10;;;25.40;99.90;;;;;;5019938;28;20209;-62
2023/09/14 10:04:59;;;;;;;5.13;3.58;;;25.60;99.90;;;;;;5021804;28;20309;-61
2023/09/14 10:07:26;;;;;;;4.88;3.17;;;25.80;99.90;;;;;;5021601;28;20213;-61
2023/09/14 10:09:54;;;;;;;3.70;3.20;;;26.00;99.90;;;;;;5019140;28;20203;-61
2023/09/14 10:12:25;;;;;;;6.43;3.42;;;26.20;99.90;;;;;;5019307;28;20210;-63
2023/09/14 10:14:54;;;;;;;5.03;3.35;;;26.40;99.90;;;;;;5022405;28;20291;-62
2023/09/14 10:17:23;;;;;;;5.30;3.28;;;26.80;99.90;;;;;;5021839;28;20225;-61
2023/09/14 10:19:51;;;;;;;4.45;3.92;;;27.00;99.90;;;;;;5019162;28;20239;-61
2023/09/14 10:22:20;;;;;;;7.15;3.38;;;27.10;99.90;;;;;;5018676;28;20207;-61
2023/09/14 10:24:47;;;;;;;6.60;3.78;;;27.10;99.90;;;;;;5019194;28;20203;-61
2023/09/14 10:27:15;;;;;;;5.05;3.65;;;26.50;99.90;;;;;;5019135;28;20237;-61
2023/09/14 10:29:44;;;;;;;3.45;2.78;;;26.00;99.90;;;;;;5022361;28;20207;-61
2023/09/14 10:32:11;;;;;;;4.57;3.00;;;25.70;99.90;;;;;;5022517;28;20557;-61
2023/09/14 10:34:40;;;;;;;4.35;3.28;;;25.60;99.90;;;;;;5019353;28;20226;-62
2023/09/14 10:37:08;;;;;;;8.50;3.67;;;25.70;99.90;;;;;;5021256;28;20230;-62
2023/09/14 10:39:37;;;;;;;5.03;3.97;;;25.70;99.90;;;;;;5025195;28;20276;-61
2023/09/14 10:42:04;;;;;;;5.05;4.30;;;25.80;99.90;;;;;;5026147;28;20210;-62
2023/09/14 10:44:32;;;;;;;5.07;3.90;;;25.70;99.90;;;;;;5024570;28;20214;-60
2023/09/14 10:47:02;;;;;;;5.43;3.83;;;25.60;99.90;;;;;;5022517;28;20687;-61
2023/09/14 10:49:32;;;;;;;4.97;3.83;;;25.80;99.90;;;;;;5024244;28;20211;-64
2023/09/14 10:52:01;;;;;;;6.78;3.80;;;25.90;99.90;;;;;;5026449;28;20225;-64
2023/09/14 10:54:30;;;;;;;7.85;3.85;;;26.10;99.90;;;;;;5024782;28;20261;-65
2023/09/14 10:56:58;;;;;;;4.57;3.80;;;26.20;99.90;;;;;;5022374;28;20734;-64
2023/09/14 10:59:49;;;;;;;4.28;3.45;;;26.30;99.90;;;;;;5022927;28;20687;-67
2023/09/14 11:02:56;;;;;;;5.97;4.40;;;26.30;99.90;;;;;;5024732;28;20425;-64
2023/09/14 11:05:24;;;;;;;6.45;4.15;;;25.30;99.90;;;;;;4969356;28;20224;-64
2023/09/14 11:08:02;;;;;;;6.15;4.05;;;24.80;99.90;;;;;;5016208;28;20202;-64
2023/09/14 11:10:29;;;;;;;6.88;3.83;;;24.60;99.90;;;;;;5024617;28;20210;-64
2023/09/14 11:13:25;;;;;;;4.18;3.30;;;24.50;99.90;;;;;;5022419;28;20215;-64
2023/09/14 11:15:56;;;;;;;7.10;3.15;;;24.40;99.90;;;;;;5022344;28;20222;-65
2023/09/14 11:18:35;;;;;;;4.05;2.97;;;24.40;99.90;;;;;;5022226;28;20215;-65
2023/09/14 11:21:02;;;;;;;4.20;3.20;;;24.60;99.90;;;;;;5025632;28;20256;-64
2023/09/14 11:23:36;;;;;;;8.52;3.17;;;24.90;99.90;;;;;;5024103;28;20282;-64
2023/09/14 11:26:04;;;;;;;4.82;3.13;;;25.20;99.90;;;;;;5022195;28;20250;-65
2023/09/14 11:28:32;;;;;;;3.55;2.97;;;25.20;99.90;;;;;;5023547;28;20530;-64
2023/09/14 11:30:59;;;;;;;7.28;3.00;;;25.00;99.90;;;;;;5025497;28;20234;-64
2023/09/14 11:33:26;;;;;;;4.35;2.65;;;24.80;99.90;;;;;;5024919;28;20289;-64
2023/09/14 11:35:53;;;;;;;4.25;2.97;;;24.80;99.90;;;;;;5021996;28;20694;-65
2023/09/14 11:38:21;;;;;;;4.72;2.88;;;24.80;99.90;;;;;;5022429;28;20257;-64
2023/09/14 11:40:49;;;;;;;3.58;2.70;;;24.60;99.90;;;;;;5022542;28;20338;-64
2023/09/14 11:43:25;;;;;;;4.88;2.92;;;24.40;99.90;;;;;;5022101;28;20207;-65
2023/09/14 11:46:03;;;;;;;5.22;2.97;;;24.10;99.90;;;;;;5023874;28;20580;-63
2023/09/14 11:48:32;;;;;;;6.32;2.60;;;24.00;99.90;;;;;;5022845;28;20645;-65
2023/09/14 11:51:03;;;;;;;4.10;3.20;;;24.00;99.90;;;;;;5028499;28;20268;-69
2023/09/14 11:53:33;;;;;;;4.38;2.92;;;23.90;99.90;;;;;;5021891;28;20207;-67
2023/09/14 11:56:02;;;;;;;4.60;2.72;;;23.90;99.90;;;;;;5025016;28;20218;-65
2023/09/14 11:58:34;;;;;;;8.45;3.08;;;23.60;99.90;;;;;;5023343;28;20217;-67
2023/09/14 12:01:01;;;;;;;3.38;2.67;;;23.40;99.90;;;;;;5021673;28;20273;-64
2023/09/14 12:03:28;;;;;;;3.72;2.40;;;23.20;99.90;;;;;;5021492;28;20218;-64
2023/09/14 12:05:56;;;;;;;4.40;2.70;;;23.20;99.90;;;;;;5025010;28;20218;-65
2023/09/14 12:08:23;;;;;;;4.13;3.05;;;23.30;99.90;;;;;;5024685;28;20678;-64
2023/09/14 12:10:54;;;;;;;4.20;2.45;;;23.30;99.90;;;;;;5021033;28;20203;-65
2023/09/14 12:13:23;;;;;;;5.90;2.78;;;23.20;99.90;;;;;;5021012;28;20273;-65
2023/09/14 12:15:59;;;;;;;5.60;3.80;;;23.20;99.90;;;;;;5021279;28;20246;-65
2023/09/14 12:18:38;;;;;;;3.63;2.92;;;23.30;99.90;;;;;;5021397;28;20257;-65
2023/09/14 12:21:07;;;;;;;4.30;2.72;;;23.50;99.90;;;;;;5024634;28;20265;-65
2023/09/14 12:23:36;;;;;;;3.63;2.80;;;23.70;99.90;;;;;;5022176;28;20210;-65
2023/09/14 12:26:03;;;;;;;5.25;2.67;;;23.90;99.90;;;;;;5021191;28;20660;-65
2023/09/14 12:28:31;;;;;;;3.17;2.53;;;23.80;99.90;;;;;;5021782;28;20561;-65
2023/09/14 12:30:58;;;;;;;4.88;2.60;;;23.70;99.90;;;;;;5024365;28;20210;-65
2023/09/14 12:33:25;;;;;;;4.47;2.70;;;23.70;99.90;;;;;;5023481;28;20211;-65
2023/09/14 12:35:53;;;;;;;4.45;2.40;;;23.60;99.90;;;;;;5019920;28;20317;-65
2023/09/14 12:38:20;;;;;;;6.07;2.60;;;23.50;99.90;;;;;;5020616;28;20238;-65
2023/09/14 12:40:47;;;;;;;5.80;2.60;;;23.60;99.90;;;;;;5023715;28;20197;-65
2023/09/14 12:43:17;;;;;;;4.18;2.63;;;23.70;99.90;;;;;;5023870;28;20202;-65
2023/09/14 12:45:45;;;;;;;4.57;2.65;;;23.60;99.90;;;;;;5021046;28;20230;-65
2023/09/14 12:48:12;;;;;;;2.65;2.28;;;23.50;99.90;;;;;;5020072;28;20642;-65
2023/09/14 12:50:39;;;;;;;7.50;2.72;;;23.50;99.90;;;;;;5022753;28;20206;-64